Hovedside
METAR-TAF:

METAR-TAF

Lufthavner :

Utti lufthavn

Utti, Finland

breddegrad: 60-54N, lengdegrad: 026-56E, høyde over havet: 100 m

Gjeldene værobservasjon

Denne rapporten ble laget for 40 minutter siden, klokken 23:20 UTC
Vind 3 kt fra Vest-nordvest, skiftende mellom Vest og Nordvest
Temperatur 12°C
Luftfuktighet 50%
Trykk 1015 hPa
Sikt 10 km eller mer
ingen skyer under 1500 m og ingen bygeskyer

METAR: EFUT 182320Z AUTO 29003KT 260V320 CAVOK 12/02 Q1015

Tid: 03:00 (00:00 UTC)


TAF: fraværende

Værobservasjoner og værvarsel for over 4000 flyplasser (METAR- og TAF-rapporter).

Tilgjengelige stasjoner er representert av de røde og gule prikkene på kartet.

Hold musepekeren over prikken for å se navnet på stasjonen.

Klikk så for å se værobservasjoner og -varsler.

For å forandre kartet kan du klikke på den grønne knappen med svart kryss for å zoome inn, på den grønne knappen med strek for å zoome ut, eller på de grønne pilene for å se tilstøtende kart.


METAR-TAF: